createdAt,value
2022-12-07T00:01:31.191Z,73.30
2022-12-07T00:04:05.764Z,73.40
2022-12-07T00:06:38.796Z,73.30
2022-12-07T00:09:07.365Z,73.40
2022-12-07T00:11:34.336Z,73.30
2022-12-07T00:14:04.316Z,73.30
2022-12-07T00:16:33.517Z,73.50
2022-12-07T00:19:00.495Z,73.40
2022-12-07T00:21:29.868Z,73.40
2022-12-07T00:23:57.708Z,73.60
2022-12-07T00:26:30.031Z,73.80
2022-12-07T00:29:00.276Z,73.70
2022-12-07T00:31:34.422Z,73.70
2022-12-07T00:34:01.694Z,74.00
2022-12-07T00:36:29.208Z,73.50
2022-12-07T00:38:58.263Z,73.70
2022-12-07T00:41:26.563Z,73.80
2022-12-07T00:43:54.472Z,73.70
2022-12-07T00:46:22.053Z,73.80
2022-12-07T00:48:49.911Z,73.60
2022-12-07T00:51:19.158Z,73.50
2022-12-07T00:53:46.633Z,73.70
2022-12-07T00:56:19.609Z,73.50
2022-12-07T00:58:52.029Z,73.70
2022-12-07T01:01:19.004Z,73.80
2022-12-07T01:03:45.955Z,73.80
2022-12-07T01:06:17.018Z,74.10
2022-12-07T01:08:44.186Z,74.00
2022-12-07T01:11:14.586Z,74.20
2022-12-07T01:13:41.800Z,74.30
2022-12-07T01:16:11.104Z,74.40
2022-12-07T01:18:38.428Z,74.40
2022-12-07T01:21:12.418Z,75.20
2022-12-07T01:23:40.010Z,75.10
2022-12-07T01:26:10.911Z,75.10
2022-12-07T01:28:37.851Z,75.40
2022-12-07T01:31:07.603Z,75.20
2022-12-07T01:33:36.746Z,75.00
2022-12-07T01:36:19.087Z,74.80
2022-12-07T01:38:47.718Z,74.80
2022-12-07T01:41:15.122Z,74.80
2022-12-07T01:44:11.399Z,74.70
2022-12-07T01:46:39.115Z,74.70
2022-12-07T01:49:09.666Z,74.70
2022-12-07T01:51:40.327Z,74.60
2022-12-07T01:54:07.505Z,74.70
2022-12-07T01:56:34.834Z,75.00
2022-12-07T01:59:01.972Z,74.60
2022-12-07T02:01:29.527Z,74.60
2022-12-07T02:03:57.233Z,74.50
2022-12-07T02:06:26.880Z,74.30
2022-12-07T02:08:54.581Z,74.20
2022-12-07T02:11:22.202Z,74.20
2022-12-07T02:13:49.481Z,74.00
2022-12-07T02:16:43.187Z,73.90
2022-12-07T02:19:15.728Z,73.80
2022-12-07T02:22:01.139Z,73.70
2022-12-07T02:24:55.006Z,73.70
2022-12-07T02:27:57.295Z,73.50
2022-12-07T02:30:31.750Z,73.60
2022-12-07T02:33:04.380Z,73.50
2022-12-07T02:35:34.325Z,73.60
2022-12-07T02:38:23.503Z,73.70
2022-12-07T02:40:59.148Z,73.60
2022-12-07T02:43:32.958Z,73.90
2022-12-07T02:48:32.686Z,72.80
2022-12-07T02:50:59.491Z,73.30
2022-12-07T02:53:44.105Z,73.20
2022-12-07T02:56:19.306Z,73.10
2022-12-07T02:58:55.272Z,73.70
2022-12-07T03:01:50.644Z,73.00
2022-12-07T03:04:38.606Z,72.90
2022-12-07T03:07:19.696Z,72.80
2022-12-07T03:10:09.589Z,72.80
2022-12-07T03:12:49.726Z,72.80
2022-12-07T03:15:23.583Z,72.90
2022-12-07T03:17:51.986Z,72.70
2022-12-07T03:20:22.725Z,72.60
2022-12-07T03:22:50.526Z,72.60
2022-12-07T03:25:18.609Z,72.60
2022-12-07T03:27:57.080Z,72.50
2022-12-07T03:30:29.631Z,72.60
2022-12-07T03:33:23.377Z,72.50
2022-12-07T03:35:55.868Z,72.70
2022-12-07T03:38:37.537Z,72.40
2022-12-07T03:41:23.582Z,72.40
2022-12-07T03:43:50.960Z,72.30
2022-12-07T03:46:42.652Z,72.40
2022-12-07T03:49:33.555Z,72.30
2022-12-07T03:52:38.510Z,72.40
2022-12-07T03:55:11.114Z,72.20
2022-12-07T03:57:40.665Z,72.30
2022-12-07T04:00:09.014Z,72.10
2022-12-07T04:02:36.497Z,72.10
2022-12-07T04:05:04.424Z,72.20
2022-12-07T04:07:31.552Z,72.30
2022-12-07T04:09:58.620Z,72.30
2022-12-07T04:12:25.636Z,72.20
2022-12-07T04:14:52.455Z,72.20
2022-12-07T04:17:19.267Z,72.10
2022-12-07T04:19:46.157Z,72.20
2022-12-07T04:22:12.969Z,72.00
2022-12-07T04:24:40.093Z,72.00
2022-12-07T04:27:06.947Z,72.00
2022-12-07T04:29:33.929Z,71.90
2022-12-07T04:32:00.835Z,71.90
2022-12-07T04:34:27.699Z,71.90
2022-12-07T04:36:54.639Z,71.90
2022-12-07T04:39:25.621Z,71.90
2022-12-07T04:41:52.598Z,71.90
2022-12-07T04:44:19.828Z,71.90
2022-12-07T04:46:47.200Z,71.90
2022-12-07T04:49:15.506Z,71.90
2022-12-07T04:51:42.893Z,71.80
2022-12-07T04:54:09.735Z,71.80
2022-12-07T04:56:37.154Z,71.80
2022-12-07T04:59:05.005Z,71.70
2022-12-07T05:01:32.897Z,71.80
2022-12-07T05:04:00.038Z,71.80
2022-12-07T05:06:27.339Z,71.80
2022-12-07T05:08:54.322Z,71.90
2022-12-07T05:11:39.258Z,71.90
2022-12-07T05:14:18.294Z,71.90
2022-12-07T05:16:47.369Z,71.90
2022-12-07T05:19:14.862Z,71.90
2022-12-07T05:21:41.935Z,72.00
2022-12-07T05:24:11.063Z,71.90
2022-12-07T05:26:38.021Z,72.20
2022-12-07T05:29:05.283Z,72.30
2022-12-07T05:31:32.422Z,72.30
2022-12-07T05:33:59.310Z,72.20
2022-12-07T05:36:26.280Z,72.30
2022-12-07T05:38:53.095Z,72.20
2022-12-07T05:41:38.692Z,72.40
2022-12-07T05:44:06.280Z,72.40
2022-12-07T05:46:33.834Z,72.40
2022-12-07T05:49:00.803Z,72.40
2022-12-07T05:51:27.690Z,72.40
2022-12-07T05:53:54.802Z,72.60
2022-12-07T05:56:21.808Z,72.60
2022-12-07T05:59:07.238Z,72.60
2022-12-07T06:01:34.097Z,72.70
2022-12-07T06:04:00.913Z,72.60
2022-12-07T06:06:27.799Z,72.80
2022-12-07T06:08:54.717Z,72.80
2022-12-07T06:11:40.044Z,72.80
2022-12-07T06:14:06.864Z,73.60
2022-12-07T06:16:33.834Z,73.00
2022-12-07T06:19:00.822Z,73.00
2022-12-07T06:21:27.819Z,73.10
2022-12-07T06:23:54.953Z,73.10
2022-12-07T06:26:22.115Z,73.20
2022-12-07T06:28:48.967Z,73.90
2022-12-07T06:31:16.075Z,73.30
2022-12-07T06:33:43.799Z,73.40
2022-12-07T06:36:11.026Z,74.00
2022-12-07T06:38:38.096Z,73.50
2022-12-07T06:41:05.232Z,73.50
2022-12-07T06:43:32.026Z,73.50
2022-12-07T06:45:58.944Z,73.60
2022-12-07T06:48:26.062Z,73.60
2022-12-07T06:50:54.984Z,73.70
2022-12-07T06:53:22.702Z,73.80
2022-12-07T06:55:49.680Z,73.70
2022-12-07T06:58:16.794Z,73.90
2022-12-07T07:00:44.151Z,73.90
2022-12-07T07:03:11.464Z,74.00
2022-12-07T07:05:38.292Z,74.00
2022-12-07T07:08:21.836Z,74.20
2022-12-07T07:10:49.501Z,74.10
2022-12-07T07:13:16.438Z,74.20
2022-12-07T07:15:43.627Z,74.20
2022-12-07T07:18:10.629Z,74.40
2022-12-07T07:20:37.953Z,74.40
2022-12-07T07:23:04.948Z,74.40
2022-12-07T07:25:31.723Z,74.30
2022-12-07T07:27:58.793Z,74.40
2022-12-07T07:30:26.445Z,74.40
2022-12-07T07:33:00.841Z,75.10
2022-12-07T07:35:29.129Z,74.60
2022-12-07T07:37:56.349Z,74.50
2022-12-07T07:40:23.918Z,74.70
2022-12-07T07:42:54.165Z,74.70
2022-12-07T07:45:22.794Z,74.80
2022-12-07T07:47:50.126Z,75.30
2022-12-07T07:50:17.640Z,75.00
2022-12-07T07:52:45.113Z,75.00
2022-12-07T07:55:12.838Z,75.10
2022-12-07T07:57:40.877Z,75.20
2022-12-07T08:00:15.392Z,75.40
2022-12-07T08:02:44.118Z,75.40
2022-12-07T08:05:13.035Z,75.20
2022-12-07T08:07:40.483Z,74.80
2022-12-07T08:10:08.904Z,73.90
2022-12-07T08:13:00.144Z,73.90
2022-12-07T08:15:29.410Z,73.10
2022-12-07T08:17:56.217Z,73.00
2022-12-07T08:20:23.807Z,72.40
2022-12-07T08:22:50.766Z,72.10
2022-12-07T08:25:17.997Z,72.00
2022-12-07T08:27:44.835Z,71.80
2022-12-07T08:30:12.272Z,71.20
2022-12-07T08:32:39.090Z,70.70
2022-12-07T08:35:06.366Z,70.20
2022-12-07T08:37:34.052Z,69.60
2022-12-07T08:40:01.325Z,70.00
2022-12-07T08:42:38.728Z,70.60
2022-12-07T08:45:11.013Z,70.60
2022-12-07T08:47:41.543Z,69.40
2022-12-07T08:50:10.860Z,69.30
2022-12-07T08:52:38.703Z,69.90
2022-12-07T08:55:07.015Z,70.00
2022-12-07T08:57:36.035Z,70.00
2022-12-07T09:00:05.023Z,69.50
2022-12-07T09:02:32.893Z,69.50
2022-12-07T09:04:59.731Z,69.70
2022-12-07T09:07:27.320Z,69.40
2022-12-07T09:09:54.126Z,69.40
2022-12-07T09:12:20.959Z,69.50
2022-12-07T09:14:47.743Z,69.30
2022-12-07T09:17:14.935Z,68.90
2022-12-07T09:19:43.511Z,68.80
2022-12-07T09:22:10.402Z,68.80
2022-12-07T09:24:37.259Z,68.80
2022-12-07T09:27:04.354Z,68.80
2022-12-07T09:29:31.147Z,68.20
2022-12-07T09:31:58.031Z,68.80
2022-12-07T09:34:25.031Z,68.00
2022-12-07T09:36:51.913Z,67.80
2022-12-07T09:39:18.812Z,67.90
2022-12-07T09:41:46.849Z,67.80
2022-12-07T09:44:18.268Z,67.70
2022-12-07T09:46:46.631Z,67.70
2022-12-07T09:49:18.610Z,68.10
2022-12-07T09:51:45.810Z,68.00
2022-12-07T09:54:17.532Z,67.50
2022-12-07T09:56:45.387Z,67.10
2022-12-07T09:59:19.048Z,68.00
2022-12-07T10:01:48.816Z,67.60
2022-12-07T10:04:20.990Z,67.00
2022-12-07T10:06:49.042Z,67.20
2022-12-07T10:09:17.971Z,67.70
2022-12-07T10:12:01.580Z,66.50
2022-12-07T10:14:58.833Z,67.00
2022-12-07T10:17:30.285Z,67.50
2022-12-07T10:20:15.964Z,66.60
2022-12-07T10:23:05.858Z,67.20
2022-12-07T10:25:37.956Z,66.60
2022-12-07T10:28:13.996Z,67.10
2022-12-07T10:30:53.994Z,67.10
2022-12-07T10:33:34.551Z,67.10
2022-12-07T10:36:16.473Z,66.80
2022-12-07T10:38:47.394Z,66.60
2022-12-07T10:41:14.258Z,66.90
2022-12-07T10:43:57.920Z,66.80
2022-12-07T10:46:52.919Z,66.90
2022-12-07T10:49:44.635Z,66.80
2022-12-07T10:52:42.080Z,66.80
2022-12-07T10:55:34.222Z,66.50
2022-12-07T10:58:35.649Z,66.60
2022-12-07T11:01:21.990Z,66.80
2022-12-07T11:04:16.813Z,66.60
2022-12-07T11:06:55.355Z,66.80
2022-12-07T11:10:09.743Z,66.40
2022-12-07T11:12:51.345Z,66.40
2022-12-07T11:15:18.102Z,66.60
2022-12-07T11:17:59.736Z,66.60
2022-12-07T11:20:40.918Z,66.60
2022-12-07T11:23:14.496Z,66.50
2022-12-07T11:25:52.851Z,65.90
2022-12-07T11:28:31.951Z,66.10
2022-12-07T11:34:32.240Z,66.20
2022-12-07T11:37:00.806Z,66.20
2022-12-07T11:39:35.985Z,66.30
2022-12-07T11:42:11.059Z,66.20
2022-12-07T11:44:41.686Z,66.30
2022-12-07T11:47:38.075Z,66.10
2022-12-07T11:50:31.451Z,66.00
2022-12-07T11:53:15.111Z,66.10
2022-12-07T11:56:17.451Z,66.30
2022-12-07T11:59:05.423Z,66.90
2022-12-07T12:01:34.399Z,66.30
2022-12-07T12:04:11.357Z,66.40
2022-12-07T12:06:43.948Z,66.50
2022-12-07T12:15:42.185Z,66.40
2022-12-07T12:18:43.733Z,66.40
2022-12-07T12:23:49.460Z,66.00
2022-12-07T12:26:23.367Z,66.80
2022-12-07T12:28:53.521Z,66.80
2022-12-07T12:31:23.466Z,67.00
2022-12-07T12:33:53.345Z,67.00
2022-12-07T12:36:22.315Z,67.00
2022-12-07T12:39:12.066Z,67.00
2022-12-07T12:41:39.442Z,66.60
2022-12-07T12:44:21.292Z,66.20
2022-12-07T12:46:55.145Z,66.00
2022-12-07T12:49:21.907Z,65.80
2022-12-07T12:51:51.569Z,65.90
2022-12-07T12:54:24.800Z,66.00
2022-12-07T12:57:15.796Z,66.10
2022-12-07T12:59:48.114Z,66.20
2022-12-07T13:02:26.990Z,66.10
2022-12-07T13:05:08.717Z,66.10
2022-12-07T13:07:48.016Z,66.10
2022-12-07T13:10:30.281Z,66.60
2022-12-07T13:13:06.106Z,65.90
2022-12-07T13:15:39.219Z,66.00
2022-12-07T13:18:06.056Z,66.20
2022-12-07T13:20:45.584Z,66.60
2022-12-07T13:23:15.035Z,66.90
2022-12-07T13:25:56.968Z,67.20
2022-12-07T13:28:27.963Z,67.30
2022-12-07T13:31:15.510Z,67.40
2022-12-07T13:33:46.190Z,67.50
2022-12-07T13:36:26.329Z,67.70
2022-12-07T13:38:59.084Z,67.70
2022-12-07T13:41:30.120Z,67.80
2022-12-07T13:44:17.188Z,67.70
2022-12-07T13:46:49.535Z,67.70
2022-12-07T13:49:30.235Z,67.70
2022-12-07T13:52:19.745Z,67.70
2022-12-07T13:54:58.500Z,67.70
2022-12-07T13:57:35.559Z,67.70
2022-12-07T14:00:05.038Z,67.90
2022-12-07T14:02:36.398Z,67.90
2022-12-07T14:05:13.523Z,68.50
2022-12-07T14:08:07.403Z,68.00
2022-12-07T14:10:35.631Z,68.00
2022-12-07T14:13:05.247Z,68.10
2022-12-07T14:15:35.335Z,68.10
2022-12-07T14:18:06.715Z,68.20
2022-12-07T14:20:39.006Z,68.20
2022-12-07T14:23:21.645Z,68.20
2022-12-07T14:25:51.787Z,68.90
2022-12-07T14:28:33.230Z,68.30
2022-12-07T14:31:01.428Z,68.40
2022-12-07T14:33:28.871Z,68.50
2022-12-07T14:35:56.768Z,68.60
2022-12-07T14:38:24.236Z,68.60
2022-12-07T14:40:52.117Z,68.70
2022-12-07T14:43:21.098Z,68.80
2022-12-07T14:45:48.129Z,68.90
2022-12-07T14:53:56.960Z,69.10
2022-12-07T14:56:25.461Z,69.20
2022-12-07T14:58:52.777Z,69.30
2022-12-07T15:01:19.689Z,69.40
2022-12-07T15:03:46.683Z,69.40
2022-12-07T15:06:18.638Z,69.40
2022-12-07T15:08:45.913Z,69.50
2022-12-07T15:11:15.760Z,69.50
2022-12-07T15:14:01.147Z,69.50
2022-12-07T15:16:33.483Z,69.50
2022-12-07T15:19:31.091Z,69.50
2022-12-07T15:21:59.408Z,69.50
2022-12-07T15:24:26.851Z,69.60
2022-12-07T15:26:53.859Z,69.60
2022-12-07T15:29:23.118Z,69.70
2022-12-07T15:31:56.319Z,69.60
2022-12-07T15:34:34.818Z,69.60
2022-12-07T15:37:05.079Z,69.50
2022-12-07T15:39:32.048Z,69.50
2022-12-07T15:41:58.868Z,69.50
2022-12-07T15:44:44.433Z,69.50
2022-12-07T15:47:11.262Z,69.40
2022-12-07T15:49:38.182Z,69.40
2022-12-07T15:52:05.219Z,69.40
2022-12-07T15:54:33.376Z,69.40
2022-12-07T15:57:00.885Z,69.30
2022-12-07T15:59:29.275Z,69.40
2022-12-07T16:01:57.152Z,69.90
2022-12-07T16:04:24.236Z,69.30
2022-12-07T16:06:52.094Z,69.30
2022-12-07T16:09:19.785Z,69.40
2022-12-07T16:11:46.952Z,69.60
2022-12-07T16:14:14.168Z,69.70
2022-12-07T16:16:41.445Z,69.70
2022-12-07T16:19:09.467Z,69.60
2022-12-07T16:21:36.896Z,69.50
2022-12-07T16:24:04.506Z,69.60
2022-12-07T16:26:31.629Z,69.50
2022-12-07T16:28:58.666Z,69.50
2022-12-07T16:31:29.378Z,69.50
2022-12-07T16:33:59.563Z,69.50
2022-12-07T16:37:01.922Z,69.50
2022-12-07T16:39:15.672Z,69.60
2022-12-07T16:41:42.754Z,69.60
2022-12-07T16:44:12.262Z,69.60
2022-12-07T16:46:39.306Z,69.60
2022-12-07T16:49:06.518Z,69.60
2022-12-07T16:51:35.704Z,69.60
2022-12-07T16:54:02.591Z,69.50
2022-12-07T16:56:30.195Z,69.40
2022-12-07T16:58:59.389Z,69.30
2022-12-07T17:01:29.335Z,69.30
2022-12-07T17:03:58.308Z,69.20
2022-12-07T17:06:27.448Z,69.00
2022-12-07T17:08:54.798Z,69.00
2022-12-07T17:11:30.115Z,69.00
2022-12-07T17:14:15.687Z,68.90
2022-12-07T17:16:42.772Z,68.90
2022-12-07T17:19:12.659Z,68.80
2022-12-07T17:21:40.277Z,68.80
2022-12-07T17:24:10.072Z,68.70
2022-12-07T17:26:37.114Z,68.70
2022-12-07T17:29:05.852Z,68.70
2022-12-07T17:31:36.245Z,68.70
2022-12-07T17:34:03.128Z,68.60
2022-12-07T17:36:31.839Z,68.50
2022-12-07T17:38:59.165Z,68.60
2022-12-07T17:41:47.180Z,68.50
2022-12-07T17:44:19.354Z,68.50
2022-12-07T17:46:47.938Z,68.30
2022-12-07T17:49:15.343Z,68.30
2022-12-07T17:52:01.394Z,68.30
2022-12-07T17:54:29.159Z,68.30
2022-12-07T17:56:55.980Z,68.20
2022-12-07T17:59:22.997Z,68.20
2022-12-07T18:01:49.888Z,68.20
2022-12-07T18:04:16.852Z,68.00
2022-12-07T18:06:48.857Z,68.10
2022-12-07T18:09:18.995Z,68.00
2022-12-07T18:11:46.144Z,68.00
2022-12-07T18:14:13.058Z,68.10
2022-12-07T18:16:40.179Z,68.00
2022-12-07T18:19:09.075Z,68.10
2022-12-07T18:21:36.616Z,68.10
2022-12-07T18:24:04.947Z,68.10
2022-12-07T18:26:35.897Z,68.00
2022-12-07T18:29:03.933Z,68.00
2022-12-07T18:31:30.843Z,68.00
2022-12-07T18:34:02.889Z,67.90
2022-12-07T18:36:29.731Z,67.90
2022-12-07T18:38:56.582Z,68.00
2022-12-07T18:41:23.908Z,68.00
2022-12-07T18:43:50.715Z,67.90
2022-12-07T18:46:20.310Z,67.80
2022-12-07T18:48:47.590Z,67.80
2022-12-07T18:51:15.815Z,67.80
2022-12-07T18:53:43.321Z,67.80
2022-12-07T18:56:21.773Z,67.90
2022-12-07T18:59:15.576Z,68.00
2022-12-07T19:01:45.153Z,68.00
2022-12-07T19:04:12.024Z,68.00
2022-12-07T19:06:41.002Z,68.00
2022-12-07T19:09:07.803Z,68.10
2022-12-07T19:11:50.115Z,68.10
2022-12-07T19:14:21.928Z,68.10
2022-12-07T19:16:50.780Z,68.30
2022-12-07T19:19:20.285Z,68.40
2022-12-07T19:21:47.689Z,68.30
2022-12-07T19:24:19.746Z,68.30
2022-12-07T19:26:49.890Z,68.40
2022-12-07T19:29:16.713Z,68.50
2022-12-07T19:31:43.659Z,68.60
2022-12-07T19:34:13.251Z,68.80
2022-12-07T19:36:40.294Z,68.80
2022-12-07T19:39:12.870Z,69.00
2022-12-07T19:41:43.861Z,69.70
2022-12-07T19:44:16.117Z,69.10
2022-12-07T19:46:46.634Z,69.20
2022-12-07T19:49:16.458Z,69.30
2022-12-07T19:51:45.092Z,69.40
2022-12-07T19:54:15.044Z,69.50
2022-12-07T19:56:43.244Z,69.50
2022-12-07T19:59:10.764Z,69.50
2022-12-07T20:01:38.267Z,69.60
2022-12-07T20:04:07.952Z,69.70
2022-12-07T20:06:34.812Z,69.70
2022-12-07T20:09:01.773Z,69.70
2022-12-07T20:11:47.277Z,69.70
2022-12-07T20:14:14.119Z,69.80
2022-12-07T20:16:41.690Z,69.80
2022-12-07T20:19:09.909Z,69.80
2022-12-07T20:21:37.919Z,69.80
2022-12-07T20:24:06.954Z,69.90
2022-12-07T20:26:35.847Z,70.00
2022-12-07T20:29:14.753Z,69.70
2022-12-07T20:31:46.104Z,69.90
2022-12-07T20:34:13.712Z,69.10
2022-12-07T20:36:40.806Z,68.50
2022-12-07T20:39:08.272Z,68.20
2022-12-07T20:41:54.366Z,68.10
2022-12-07T20:44:21.281Z,68.20
2022-12-07T20:46:48.554Z,68.10
2022-12-07T20:49:17.091Z,68.10
2022-12-07T20:51:44.878Z,68.10
2022-12-07T20:54:12.957Z,68.10
2022-12-07T20:56:40.027Z,68.30
2022-12-07T20:59:12.240Z,68.40
2022-12-07T21:01:40.111Z,68.50
2022-12-07T21:04:07.292Z,68.70
2022-12-07T21:06:34.612Z,68.80
2022-12-07T21:09:01.494Z,69.00
2022-12-07T21:11:30.123Z,69.30
2022-12-07T21:13:57.293Z,69.40
2022-12-07T21:16:27.836Z,69.50
2022-12-07T21:18:56.352Z,69.70
2022-12-07T21:21:23.562Z,69.90
2022-12-07T21:23:56.745Z,70.00
2022-12-07T21:26:28.263Z,70.00
2022-12-07T21:28:56.018Z,69.90
2022-12-07T21:31:23.054Z,69.80
2022-12-07T21:33:50.421Z,69.60
2022-12-07T21:36:23.109Z,69.30
2022-12-07T21:38:50.436Z,69.20
2022-12-07T21:41:20.470Z,69.20
2022-12-07T21:43:47.813Z,69.10
2022-12-07T21:46:15.758Z,69.20
2022-12-07T21:48:43.107Z,69.10
2022-12-07T21:51:12.316Z,69.10
2022-12-07T21:53:41.167Z,69.10
2022-12-07T21:56:18.131Z,69.10
2022-12-07T21:58:45.865Z,69.20
2022-12-07T22:01:21.595Z,69.10
2022-12-07T22:03:48.770Z,69.20
2022-12-07T22:06:17.073Z,69.10
2022-12-07T22:08:44.530Z,69.20
2022-12-07T22:11:12.355Z,69.30
2022-12-07T22:13:59.092Z,69.50
2022-12-07T22:16:26.839Z,69.70
2022-12-07T22:18:54.178Z,69.90
2022-12-07T22:21:21.572Z,69.90
2022-12-07T22:23:48.345Z,70.00
2022-12-07T22:26:19.866Z,70.00
2022-12-07T22:28:50.844Z,70.10
2022-12-07T22:31:19.636Z,70.20
2022-12-07T22:33:47.045Z,70.10
2022-12-07T22:36:14.607Z,70.20
2022-12-07T22:38:42.539Z,69.90
2022-12-07T22:41:30.767Z,70.20
2022-12-07T22:43:58.497Z,70.40
2022-12-07T22:46:26.258Z,70.70
